Terminal Aerodrome Forecast
Issued by NWS

Home | Current Version | Previous Version | Text Only | Print | Product List | Glossary On
Versions: 1 2 3 4 5 6 7 8 9 10 11 12 13 14 15
000
FTUS46 KSEW 271700
TAFBFI
TAF
KBFI 271720Z 2718/2818 16006KT P6SM BKN150
     FM272200 17006KT P6SM BKN040 BKN120
     FM280300 20010KT P6SM -RA BKN025 OVC040
     FM281200 21010KT P6SM -SHRA BKN020 BKN035
     FM281700 23007KT P6SM VCSH BKN030 BKN050=

USA.gov is the U.S. government's official web portal to all federal, state and local government web resources and services.